This is the latest recevied weather packets stored in our database for station/object KC3SPD-13. If no packets are shown the sender has not sent any weather packets the latest 10 day(s).
| Time | Temp. | Humidity | Pressure | Rain* | Wind** | Luminosity | Snow |
|---|---|---|---|---|---|---|---|
| 1777056304 | 27.22° C | 36% | 960.6 hPa | 0 mm | - | 0 W/m² | - |
| 1777054804 | 27.22° C | 35% | 960.6 hPa | 0 mm | - | 0 W/m² | - |
| 1777054504 | 26.67° C | 36% | 960.6 hPa | 0 mm | - | 0 W/m² | - |
| 1777050904 | 25.56° C | 39% | 961.1 hPa | 0 mm | - | 0 W/m² | - |
| 1777050304 | 25.56° C | 39% | 961.2 hPa | 0 mm | - | 0 W/m² | - |
| 1777048204 | 25.56° C | 40% | 961.9 hPa | 0 mm | - | 0 W/m² | - |
| 1777045804 | 24.44° C | 43% | 962 hPa | 0 mm | - | 0 W/m² | - |
| 1777043404 | 23.89° C | 46% | 962.1 hPa | 0 mm | - | 0 W/m² | - |
| 1777042204 | 23.89° C | 46% | 962.2 hPa | 0 mm | - | 0 W/m² | - |
| 1777041304 | 23.33° C | 46% | 962.4 hPa | 0 mm | - | 0 W/m² | - |
| 1777040104 | 22.78° C | 52% | 962.5 hPa | 0 mm | - | 0 W/m² | - |
| 1777039204 | 21.67° C | 51% | 962.6 hPa | 0 mm | - | 0 W/m² | - |
| 1777035904 | 18.89° C | 62% | 963 hPa | 0 mm | - | 0 W/m² | - |
| 1777033204 | 17.22° C | 68% | 963.3 hPa | 0 mm | - | 228 W/m² | - |
| 1777030504 | 16.67° C | 70% | 963.2 hPa | 0 mm | - | 62 W/m² | - |
| 1777029904 | 15.56° C | 75% | 963.3 hPa | 0 mm | - | 44 W/m² | - |
| 1777029304 | 16.11° C | 72% | 963.3 hPa | 0 mm | - | 29 W/m² | - |
| 1777028104 | 16.67° C | 70% | 963.1 hPa | 0 mm | - | 25 W/m² | - |
| 1777022404 | 17.22° C | 70% | 962.9 hPa | 0 mm | - | 0 W/m² | - |
| 1777017004 | 17.78° C | 68% | 963 hPa | 0 mm | - | 0 W/m² | - |
| 1777016104 | 17.78° C | 68% | 963 hPa | 0 mm | - | 0 W/m² | - |
| 1777015204 | 17.22° C | 69% | 963 hPa | 0 mm | - | 0 W/m² | - |
| 1777013404 | 17.78° C | 68% | 963.1 hPa | 0 mm | - | 0 W/m² | - |
| 1777009804 | 18.89° C | 64% | 963.3 hPa | 0 mm | - | 0 W/m² | - |
| 1777009504 | 18.89° C | 64% | 963.4 hPa | 0 mm | - | 0 W/m² | - |
* Rain latest hour (hover to see other rain measurements)
** Current wind speed in m/s (hover to see current wind gust speed)